sensor_id;sensor_type;location;lat;lon;timestamp;P1;durP1;ratioP1;P2;durP2;ratioP2
21675;SDS011;10999;51.332;9.458;2023-09-19T00:00:38;4.72;;;1.02;;
21675;SDS011;10999;51.332;9.458;2023-09-19T00:03:06;2.78;;;0.90;;
21675;SDS011;10999;51.332;9.458;2023-09-19T00:05:34;3.67;;;0.90;;
21675;SDS011;10999;51.332;9.458;2023-09-19T00:08:01;3.08;;;1.05;;
21675;SDS011;10999;51.332;9.458;2023-09-19T00:10:30;5.30;;;1.23;;
21675;SDS011;10999;51.332;9.458;2023-09-19T00:13:04;3.88;;;1.20;;
21675;SDS011;10999;51.332;9.458;2023-09-19T00:15:38;2.95;;;0.88;;
21675;SDS011;10999;51.332;9.458;2023-09-19T00:18:07;2.95;;;1.00;;
21675;SDS011;10999;51.332;9.458;2023-09-19T00:20:35;6.20;;;1.25;;
21675;SDS011;10999;51.332;9.458;2023-09-19T00:23:03;2.15;;;0.93;;
21675;SDS011;10999;51.332;9.458;2023-09-19T00:25:35;3.45;;;1.27;;
21675;SDS011;10999;51.332;9.458;2023-09-19T00:28:04;3.40;;;1.42;;
21675;SDS011;10999;51.332;9.458;2023-09-19T00:30:33;3.33;;;1.15;;
21675;SDS011;10999;51.332;9.458;2023-09-19T00:33:01;3.55;;;1.10;;
21675;SDS011;10999;51.332;9.458;2023-09-19T00:35:31;3.38;;;0.90;;
21675;SDS011;10999;51.332;9.458;2023-09-19T00:37:59;2.90;;;1.02;;
21675;SDS011;10999;51.332;9.458;2023-09-19T00:40:26;2.20;;;0.90;;
21675;SDS011;10999;51.332;9.458;2023-09-19T00:42:53;3.70;;;1.20;;
21675;SDS011;10999;51.332;9.458;2023-09-19T00:45:26;3.10;;;1.05;;
21675;SDS011;10999;51.332;9.458;2023-09-19T00:47:54;2.95;;;0.95;;
21675;SDS011;10999;51.332;9.458;2023-09-19T00:50:24;4.43;;;1.20;;
21675;SDS011;10999;51.332;9.458;2023-09-19T00:52:55;3.70;;;1.20;;
21675;SDS011;10999;51.332;9.458;2023-09-19T00:55:23;3.67;;;1.42;;
21675;SDS011;10999;51.332;9.458;2023-09-19T00:57:55;3.90;;;1.13;;
21675;SDS011;10999;51.332;9.458;2023-09-19T01:00:22;4.00;;;1.25;;
21675;SDS011;10999;51.332;9.458;2023-09-19T01:02:50;5.35;;;1.60;;
21675;SDS011;10999;51.332;9.458;2023-09-19T01:05:17;3.42;;;1.15;;
21675;SDS011;10999;51.332;9.458;2023-09-19T01:07:44;2.17;;;0.85;;
21675;SDS011;10999;51.332;9.458;2023-09-19T01:10:15;2.10;;;1.00;;
21675;SDS011;10999;51.332;9.458;2023-09-19T01:12:48;3.25;;;0.88;;
21675;SDS011;10999;51.332;9.458;2023-09-19T01:15:36;3.95;;;1.15;;
21675;SDS011;10999;51.332;9.458;2023-09-19T01:21:02;3.58;;;1.15;;
21675;SDS011;10999;51.332;9.458;2023-09-19T01:26:06;5.32;;;1.35;;
21675;SDS011;10999;51.332;9.458;2023-09-19T01:28:45;3.70;;;1.05;;
21675;SDS011;10999;51.332;9.458;2023-09-19T01:31:24;3.45;;;1.00;;
21675;SDS011;10999;51.332;9.458;2023-09-19T01:34:01;3.33;;;0.98;;
21675;SDS011;10999;51.332;9.458;2023-09-19T01:36:31;4.13;;;1.20;;
21675;SDS011;10999;51.332;9.458;2023-09-19T01:39:05;4.68;;;1.30;;
21675;SDS011;10999;51.332;9.458;2023-09-19T01:44:49;3.15;;;1.23;;
21675;SDS011;10999;51.332;9.458;2023-09-19T01:47:19;3.97;;;1.20;;
21675;SDS011;10999;51.332;9.458;2023-09-19T01:52:54;3.15;;;1.08;;
21675;SDS011;10999;51.332;9.458;2023-09-19T01:55:43;3.45;;;1.27;;
21675;SDS011;10999;51.332;9.458;2023-09-19T02:00:56;4.07;;;1.40;;
21675;SDS011;10999;51.332;9.458;2023-09-19T02:03:24;3.97;;;1.45;;
21675;SDS011;10999;51.332;9.458;2023-09-19T02:05:53;3.83;;;1.60;;
21675;SDS011;10999;51.332;9.458;2023-09-19T02:08:21;3.95;;;1.33;;
21675;SDS011;10999;51.332;9.458;2023-09-19T02:10:51;4.97;;;1.15;;
21675;SDS011;10999;51.332;9.458;2023-09-19T02:13:19;5.32;;;1.65;;
21675;SDS011;10999;51.332;9.458;2023-09-19T02:15:48;5.90;;;1.55;;
21675;SDS011;10999;51.332;9.458;2023-09-19T02:18:15;5.18;;;1.67;;
21675;SDS011;10999;51.332;9.458;2023-09-19T02:20:42;3.30;;;1.38;;
21675;SDS011;10999;51.332;9.458;2023-09-19T02:23:09;4.65;;;1.70;;
21675;SDS011;10999;51.332;9.458;2023-09-19T02:25:36;4.47;;;1.75;;
21675;SDS011;10999;51.332;9.458;2023-09-19T02:28:04;5.65;;;1.80;;
21675;SDS011;10999;51.332;9.458;2023-09-19T02:30:32;7.30;;;1.88;;
21675;SDS011;10999;51.332;9.458;2023-09-19T02:32:59;5.72;;;1.58;;
21675;SDS011;10999;51.332;9.458;2023-09-19T02:35:28;3.28;;;1.50;;
21675;SDS011;10999;51.332;9.458;2023-09-19T02:37:59;3.80;;;1.80;;
21675;SDS011;10999;51.332;9.458;2023-09-19T02:40:25;5.75;;;1.60;;
21675;SDS011;10999;51.332;9.458;2023-09-19T02:42:53;8.80;;;1.80;;
21675;SDS011;10999;51.332;9.458;2023-09-19T02:45:21;6.05;;;1.80;;
21675;SDS011;10999;51.332;9.458;2023-09-19T02:47:49;6.80;;;1.90;;
21675;SDS011;10999;51.332;9.458;2023-09-19T02:50:16;5.75;;;1.60;;
21675;SDS011;10999;51.332;9.458;2023-09-19T02:52:44;5.10;;;2.10;;
21675;SDS011;10999;51.332;9.458;2023-09-19T02:55:16;6.05;;;2.25;;
21675;SDS011;10999;51.332;9.458;2023-09-19T03:00:23;8.30;;;2.50;;
21675;SDS011;10999;51.332;9.458;2023-09-19T03:02:52;6.45;;;2.10;;
21675;SDS011;10999;51.332;9.458;2023-09-19T03:05:21;5.10;;;2.00;;
21675;SDS011;10999;51.332;9.458;2023-09-19T03:07:49;5.55;;;1.98;;
21675;SDS011;10999;51.332;9.458;2023-09-19T03:10:20;5.32;;;1.90;;
21675;SDS011;10999;51.332;9.458;2023-09-19T03:12:47;4.30;;;1.88;;
21675;SDS011;10999;51.332;9.458;2023-09-19T03:15:14;5.47;;;2.15;;
21675;SDS011;10999;51.332;9.458;2023-09-19T03:17:45;5.97;;;3.33;;
21675;SDS011;10999;51.332;9.458;2023-09-19T03:20:14;5.38;;;1.92;;
21675;SDS011;10999;51.332;9.458;2023-09-19T03:22:44;4.72;;;2.17;;
21675;SDS011;10999;51.332;9.458;2023-09-19T03:25:12;8.52;;;2.45;;
21675;SDS011;10999;51.332;9.458;2023-09-19T03:27:39;8.75;;;1.92;;
21675;SDS011;10999;51.332;9.458;2023-09-19T03:30:07;6.72;;;2.00;;
21675;SDS011;10999;51.332;9.458;2023-09-19T03:32:46;4.75;;;2.00;;
21675;SDS011;10999;51.332;9.458;2023-09-19T03:35:16;6.15;;;2.05;;
21675;SDS011;10999;51.332;9.458;2023-09-19T03:37:44;6.63;;;2.47;;
21675;SDS011;10999;51.332;9.458;2023-09-19T03:40:11;4.40;;;1.83;;
21675;SDS011;10999;51.332;9.458;2023-09-19T03:42:39;6.78;;;1.95;;
21675;SDS011;10999;51.332;9.458;2023-09-19T03:45:07;5.82;;;2.15;;
21675;SDS011;10999;51.332;9.458;2023-09-19T03:47:39;5.78;;;2.00;;
21675;SDS011;10999;51.332;9.458;2023-09-19T03:50:06;4.90;;;2.13;;
21675;SDS011;10999;51.332;9.458;2023-09-19T03:52:36;6.28;;;2.35;;
21675;SDS011;10999;51.332;9.458;2023-09-19T03:55:03;6.00;;;2.05;;
21675;SDS011;10999;51.332;9.458;2023-09-19T03:57:30;7.07;;;2.20;;
21675;SDS011;10999;51.332;9.458;2023-09-19T03:59:57;4.78;;;2.08;;
21675;SDS011;10999;51.332;9.458;2023-09-19T04:02:24;5.38;;;2.10;;
21675;SDS011;10999;51.332;9.458;2023-09-19T04:04:51;7.07;;;2.60;;
21675;SDS011;10999;51.332;9.458;2023-09-19T04:07:18;4.95;;;1.92;;
21675;SDS011;10999;51.332;9.458;2023-09-19T04:09:49;5.95;;;2.45;;
21675;SDS011;10999;51.332;9.458;2023-09-19T04:12:15;6.07;;;1.90;;
21675;SDS011;10999;51.332;9.458;2023-09-19T04:14:45;5.38;;;1.92;;
21675;SDS011;10999;51.332;9.458;2023-09-19T04:17:12;4.28;;;1.67;;
21675;SDS011;10999;51.332;9.458;2023-09-19T04:19:39;6.25;;;2.13;;
21675;SDS011;10999;51.332;9.458;2023-09-19T04:22:07;7.13;;;2.13;;
21675;SDS011;10999;51.332;9.458;2023-09-19T04:24:35;5.53;;;2.42;;
21675;SDS011;10999;51.332;9.458;2023-09-19T04:27:04;6.32;;;1.90;;
21675;SDS011;10999;51.332;9.458;2023-09-19T04:29:31;4.90;;;1.50;;
21675;SDS011;10999;51.332;9.458;2023-09-19T04:31:58;8.77;;;1.67;;
21675;SDS011;10999;51.332;9.458;2023-09-19T04:34:25;5.63;;;1.75;;
21675;SDS011;10999;51.332;9.458;2023-09-19T04:36:51;5.93;;;1.75;;
21675;SDS011;10999;51.332;9.458;2023-09-19T04:39:19;4.65;;;1.52;;
21675;SDS011;10999;51.332;9.458;2023-09-19T04:41:47;4.85;;;1.52;;
21675;SDS011;10999;51.332;9.458;2023-09-19T04:44:14;6.30;;;1.80;;
21675;SDS011;10999;51.332;9.458;2023-09-19T04:46:42;5.47;;;1.52;;
21675;SDS011;10999;51.332;9.458;2023-09-19T04:49:09;5.40;;;2.08;;
21675;SDS011;10999;51.332;9.458;2023-09-19T04:51:36;4.95;;;1.50;;
21675;SDS011;10999;51.332;9.458;2023-09-19T04:54:03;8.23;;;1.73;;
21675;SDS011;10999;51.332;9.458;2023-09-19T04:56:30;5.32;;;1.55;;
21675;SDS011;10999;51.332;9.458;2023-09-19T04:58:58;5.47;;;1.40;;
21675;SDS011;10999;51.332;9.458;2023-09-19T05:01:26;7.93;;;1.48;;
21675;SDS011;10999;51.332;9.458;2023-09-19T05:03:53;6.20;;;1.73;;
21675;SDS011;10999;51.332;9.458;2023-09-19T05:06:20;6.22;;;1.98;;
21675;SDS011;10999;51.332;9.458;2023-09-19T05:08:47;4.95;;;1.42;;
21675;SDS011;10999;51.332;9.458;2023-09-19T05:11:17;4.20;;;1.40;;
21675;SDS011;10999;51.332;9.458;2023-09-19T05:13:45;7.57;;;1.55;;
21675;SDS011;10999;51.332;9.458;2023-09-19T05:16:12;4.13;;;1.27;;
21675;SDS011;10999;51.332;9.458;2023-09-19T05:18:39;6.18;;;1.42;;
21675;SDS011;10999;51.332;9.458;2023-09-19T05:21:06;4.15;;;1.10;;
21675;SDS011;10999;51.332;9.458;2023-09-19T05:23:33;7.57;;;1.50;;
21675;SDS011;10999;51.332;9.458;2023-09-19T05:26:00;5.00;;;1.42;;
21675;SDS011;10999;51.332;9.458;2023-09-19T05:28:27;4.95;;;1.30;;
21675;SDS011;10999;51.332;9.458;2023-09-19T05:30:54;6.38;;;1.40;;
21675;SDS011;10999;51.332;9.458;2023-09-19T05:33:21;5.13;;;1.30;;
21675;SDS011;10999;51.332;9.458;2023-09-19T05:35:48;7.78;;;1.83;;
21675;SDS011;10999;51.332;9.458;2023-09-19T05:38:15;6.07;;;1.48;;
21675;SDS011;10999;51.332;9.458;2023-09-19T05:40:45;3.58;;;1.23;;
21675;SDS011;10999;51.332;9.458;2023-09-19T05:43:12;4.93;;;1.50;;
21675;SDS011;10999;51.332;9.458;2023-09-19T05:45:40;5.28;;;1.40;;
21675;SDS011;10999;51.332;9.458;2023-09-19T05:48:16;5.97;;;1.50;;
21675;SDS011;10999;51.332;9.458;2023-09-19T05:50:43;5.75;;;1.42;;
21675;SDS011;10999;51.332;9.458;2023-09-19T05:53:13;6.45;;;1.70;;
21675;SDS011;10999;51.332;9.458;2023-09-19T05:55:41;7.38;;;1.65;;
21675;SDS011;10999;51.332;9.458;2023-09-19T05:58:08;5.25;;;1.45;;
21675;SDS011;10999;51.332;9.458;2023-09-19T06:00:36;5.38;;;1.27;;
21675;SDS011;10999;51.332;9.458;2023-09-19T06:03:05;3.85;;;1.40;;
21675;SDS011;10999;51.332;9.458;2023-09-19T06:05:32;4.95;;;1.30;;
21675;SDS011;10999;51.332;9.458;2023-09-19T06:07:59;7.93;;;1.60;;
21675;SDS011;10999;51.332;9.458;2023-09-19T06:10:26;7.82;;;1.80;;
21675;SDS011;10999;51.332;9.458;2023-09-19T06:12:58;7.20;;;2.30;;
21675;SDS011;10999;51.332;9.458;2023-09-19T06:15:25;8.73;;;2.42;;
21675;SDS011;10999;51.332;9.458;2023-09-19T06:17:53;5.85;;;1.90;;
21675;SDS011;10999;51.332;9.458;2023-09-19T06:20:25;6.45;;;2.20;;
21675;SDS011;10999;51.332;9.458;2023-09-19T06:22:53;5.78;;;2.15;;
21675;SDS011;10999;51.332;9.458;2023-09-19T06:25:20;10.40;;;2.42;;
21675;SDS011;10999;51.332;9.458;2023-09-19T06:27:49;8.57;;;1.80;;
21675;SDS011;10999;51.332;9.458;2023-09-19T06:30:18;8.80;;;2.22;;
21675;SDS011;10999;51.332;9.458;2023-09-19T06:32:45;7.72;;;2.20;;
21675;SDS011;10999;51.332;9.458;2023-09-19T06:35:13;9.43;;;2.45;;
21675;SDS011;10999;51.332;9.458;2023-09-19T06:37:41;5.53;;;2.35;;
21675;SDS011;10999;51.332;9.458;2023-09-19T06:40:12;7.65;;;2.40;;
21675;SDS011;10999;51.332;9.458;2023-09-19T06:42:44;4.60;;;2.10;;
21675;SDS011;10999;51.332;9.458;2023-09-19T06:45:12;6.50;;;2.13;;
21675;SDS011;10999;51.332;9.458;2023-09-19T06:50:18;6.53;;;2.10;;
21675;SDS011;10999;51.332;9.458;2023-09-19T06:52:49;6.30;;;2.22;;
21675;SDS011;10999;51.332;9.458;2023-09-19T06:55:18;5.25;;;1.73;;
21675;SDS011;10999;51.332;9.458;2023-09-19T06:57:47;6.20;;;2.10;;
21675;SDS011;10999;51.332;9.458;2023-09-19T07:00:14;8.15;;;2.83;;
21675;SDS011;10999;51.332;9.458;2023-09-19T07:02:44;6.68;;;2.22;;
21675;SDS011;10999;51.332;9.458;2023-09-19T07:05:11;6.00;;;2.13;;
21675;SDS011;10999;51.332;9.458;2023-09-19T07:07:38;5.60;;;2.33;;
21675;SDS011;10999;51.332;9.458;2023-09-19T07:10:06;7.75;;;2.42;;
21675;SDS011;10999;51.332;9.458;2023-09-19T07:12:36;8.45;;;2.30;;
21675;SDS011;10999;51.332;9.458;2023-09-19T07:15:03;7.95;;;2.45;;
21675;SDS011;10999;51.332;9.458;2023-09-19T07:17:32;7.50;;;2.15;;
21675;SDS011;10999;51.332;9.458;2023-09-19T07:19:59;9.40;;;2.45;;
21675;SDS011;10999;51.332;9.458;2023-09-19T07:22:26;6.82;;;2.70;;
21675;SDS011;10999;51.332;9.458;2023-09-19T07:24:53;5.45;;;2.08;;
21675;SDS011;10999;51.332;9.458;2023-09-19T07:27:21;8.23;;;2.40;;
21675;SDS011;10999;51.332;9.458;2023-09-19T07:29:48;7.32;;;2.50;;
21675;SDS011;10999;51.332;9.458;2023-09-19T07:32:18;5.63;;;1.80;;
21675;SDS011;10999;51.332;9.458;2023-09-19T07:34:44;11.38;;;2.80;;
21675;SDS011;10999;51.332;9.458;2023-09-19T07:37:13;9.13;;;2.08;;
21675;SDS011;10999;51.332;9.458;2023-09-19T07:39:42;9.05;;;2.50;;
21675;SDS011;10999;51.332;9.458;2023-09-19T07:42:11;7.05;;;2.20;;
21675;SDS011;10999;51.332;9.458;2023-09-19T07:44:44;11.80;;;2.38;;
21675;SDS011;10999;51.332;9.458;2023-09-19T07:47:17;8.25;;;2.38;;
21675;SDS011;10999;51.332;9.458;2023-09-19T07:49:46;7.65;;;2.40;;
21675;SDS011;10999;51.332;9.458;2023-09-19T07:52:14;7.90;;;2.05;;
21675;SDS011;10999;51.332;9.458;2023-09-19T07:54:41;7.05;;;2.00;;
21675;SDS011;10999;51.332;9.458;2023-09-19T07:57:10;6.53;;;1.90;;
21675;SDS011;10999;51.332;9.458;2023-09-19T07:59:37;8.60;;;2.65;;
21675;SDS011;10999;51.332;9.458;2023-09-19T08:02:05;8.95;;;2.22;;
21675;SDS011;10999;51.332;9.458;2023-09-19T08:04:31;8.85;;;1.95;;
21675;SDS011;10999;51.332;9.458;2023-09-19T08:07:02;6.85;;;1.73;;
21675;SDS011;10999;51.332;9.458;2023-09-19T08:09:30;4.47;;;2.25;;
21675;SDS011;10999;51.332;9.458;2023-09-19T08:11:59;9.32;;;1.90;;
21675;SDS011;10999;51.332;9.458;2023-09-19T08:14:31;9.07;;;1.80;;
21675;SDS011;10999;51.332;9.458;2023-09-19T08:16:58;8.63;;;1.60;;
21675;SDS011;10999;51.332;9.458;2023-09-19T08:19:26;8.93;;;1.45;;
21675;SDS011;10999;51.332;9.458;2023-09-19T08:21:58;8.13;;;1.45;;
21675;SDS011;10999;51.332;9.458;2023-09-19T08:24:25;8.48;;;1.90;;
21675;SDS011;10999;51.332;9.458;2023-09-19T08:26:56;7.60;;;1.65;;
21675;SDS011;10999;51.332;9.458;2023-09-19T08:29:25;7.85;;;1.55;;
21675;SDS011;10999;51.332;9.458;2023-09-19T08:31:54;9.38;;;1.63;;
21675;SDS011;10999;51.332;9.458;2023-09-19T08:34:23;6.20;;;1.30;;
21675;SDS011;10999;51.332;9.458;2023-09-19T08:36:54;6.38;;;1.35;;
21675;SDS011;10999;51.332;9.458;2023-09-19T08:39:24;7.32;;;1.60;;
21675;SDS011;10999;51.332;9.458;2023-09-19T08:41:58;7.30;;;1.20;;
21675;SDS011;10999;51.332;9.458;2023-09-19T08:44:26;6.72;;;1.30;;
21675;SDS011;10999;51.332;9.458;2023-09-19T08:47:18;7.95;;;1.17;;
21675;SDS011;10999;51.332;9.458;2023-09-19T08:49:53;10.45;;;2.28;;
21675;SDS011;10999;51.332;9.458;2023-09-19T08:52:41;6.13;;;1.25;;
21675;SDS011;10999;51.332;9.458;2023-09-19T08:55:13;7.18;;;1.38;;
21675;SDS011;10999;51.332;9.458;2023-09-19T08:57:46;6.60;;;1.40;;
21675;SDS011;10999;51.332;9.458;2023-09-19T09:00:16;7.32;;;1.77;;
21675;SDS011;10999;51.332;9.458;2023-09-19T09:02:47;10.27;;;1.35;;
21675;SDS011;10999;51.332;9.458;2023-09-19T09:05:15;9.25;;;1.30;;
21675;SDS011;10999;51.332;9.458;2023-09-19T09:07:49;7.78;;;1.67;;
21675;SDS011;10999;51.332;9.458;2023-09-19T09:10:18;7.65;;;1.20;;
21675;SDS011;10999;51.332;9.458;2023-09-19T09:12:52;7.85;;;1.70;;
21675;SDS011;10999;51.332;9.458;2023-09-19T09:15:21;8.23;;;2.15;;
21675;SDS011;10999;51.332;9.458;2023-09-19T09:17:50;4.90;;;1.15;;
21675;SDS011;10999;51.332;9.458;2023-09-19T09:20:21;6.95;;;1.75;;
21675;SDS011;10999;51.332;9.458;2023-09-19T09:22:52;4.35;;;1.20;;
21675;SDS011;10999;51.332;9.458;2023-09-19T09:25:20;7.03;;;1.40;;
21675;SDS011;10999;51.332;9.458;2023-09-19T09:27:58;5.68;;;1.10;;
21675;SDS011;10999;51.332;9.458;2023-09-19T09:30:35;9.38;;;2.05;;
21675;SDS011;10999;51.332;9.458;2023-09-19T09:33:07;8.25;;;1.58;;
21675;SDS011;10999;51.332;9.458;2023-09-19T09:41:00;5.05;;;1.17;;
21675;SDS011;10999;51.332;9.458;2023-09-19T09:43:34;3.88;;;0.93;;
21675;SDS011;10999;51.332;9.458;2023-09-19T09:48:45;5.72;;;1.33;;
21675;SDS011;10999;51.332;9.458;2023-09-19T09:51:29;7.20;;;1.15;;
21675;SDS011;10999;51.332;9.458;2023-09-19T09:54:12;5.53;;;1.45;;
21675;SDS011;10999;51.332;9.458;2023-09-19T09:56:56;5.85;;;1.30;;
21675;SDS011;10999;51.332;9.458;2023-09-19T09:59:53;6.35;;;0.98;;
21675;SDS011;10999;51.332;9.458;2023-09-19T10:02:25;5.55;;;1.20;;
21675;SDS011;10999;51.332;9.458;2023-09-19T10:04:59;8.60;;;1.33;;
21675;SDS011;10999;51.332;9.458;2023-09-19T10:07:54;6.00;;;1.35;;
21675;SDS011;10999;51.332;9.458;2023-09-19T10:10:35;7.93;;;1.65;;
21675;SDS011;10999;51.332;9.458;2023-09-19T10:13:12;8.45;;;1.30;;
21675;SDS011;10999;51.332;9.458;2023-09-19T10:15:42;7.80;;;1.45;;
21675;SDS011;10999;51.332;9.458;2023-09-19T10:18:15;11.80;;;1.40;;
21675;SDS011;10999;51.332;9.458;2023-09-19T10:20:47;4.10;;;1.27;;
21675;SDS011;10999;51.332;9.458;2023-09-19T10:23:17;5.35;;;1.02;;
21675;SDS011;10999;51.332;9.458;2023-09-19T10:25:53;7.80;;;1.40;;
21675;SDS011;10999;51.332;9.458;2023-09-19T10:28:20;5.90;;;1.30;;
21675;SDS011;10999;51.332;9.458;2023-09-19T10:30:51;7.60;;;1.23;;
21675;SDS011;10999;51.332;9.458;2023-09-19T10:33:20;8.20;;;1.98;;
21675;SDS011;10999;51.332;9.458;2023-09-19T10:35:52;7.43;;;2.13;;
21675;SDS011;10999;51.332;9.458;2023-09-19T10:38:23;3.88;;;1.15;;
21675;SDS011;10999;51.332;9.458;2023-09-19T10:40:52;5.30;;;1.35;;
21675;SDS011;10999;51.332;9.458;2023-09-19T10:43:21;5.68;;;1.17;;
21675;SDS011;10999;51.332;9.458;2023-09-19T10:45:52;10.48;;;1.67;;
21675;SDS011;10999;51.332;9.458;2023-09-19T10:48:23;6.32;;;1.40;;
21675;SDS011;10999;51.332;9.458;2023-09-19T10:53:44;5.55;;;1.27;;
21675;SDS011;10999;51.332;9.458;2023-09-19T10:56:26;7.57;;;1.38;;
21675;SDS011;10999;51.332;9.458;2023-09-19T10:59:10;5.80;;;1.00;;
21675;SDS011;10999;51.332;9.458;2023-09-19T11:01:43;9.30;;;1.42;;
21675;SDS011;10999;51.332;9.458;2023-09-19T11:04:21;4.47;;;1.40;;
21675;SDS011;10999;51.332;9.458;2023-09-19T11:09:56;7.45;;;1.50;;
21675;SDS011;10999;51.332;9.458;2023-09-19T11:21:38;4.40;;;1.20;;
21675;SDS011;10999;51.332;9.458;2023-09-19T11:26:48;5.68;;;1.00;;
21675;SDS011;10999;51.332;9.458;2023-09-19T11:29:25;5.07;;;1.20;;
21675;SDS011;10999;51.332;9.458;2023-09-19T11:31:52;7.68;;;1.40;;
21675;SDS011;10999;51.332;9.458;2023-09-19T11:37:03;6.80;;;1.55;;
21675;SDS011;10999;51.332;9.458;2023-09-19T11:42:43;9.07;;;1.63;;
21675;SDS011;10999;51.332;9.458;2023-09-19T11:48:07;6.90;;;1.25;;
21675;SDS011;10999;51.332;9.458;2023-09-19T11:50:35;9.18;;;2.05;;
21675;SDS011;10999;51.332;9.458;2023-09-19T11:53:03;6.70;;;1.20;;
21675;SDS011;10999;51.332;9.458;2023-09-19T11:55:32;5.60;;;1.50;;
21675;SDS011;10999;51.332;9.458;2023-09-19T11:58:00;6.22;;;1.42;;
21675;SDS011;10999;51.332;9.458;2023-09-19T12:00:27;6.97;;;1.55;;
21675;SDS011;10999;51.332;9.458;2023-09-19T12:02:55;8.82;;;1.77;;
21675;SDS011;10999;51.332;9.458;2023-09-19T12:05:28;7.47;;;1.40;;
21675;SDS011;10999;51.332;9.458;2023-09-19T12:07:55;6.30;;;1.13;;
21675;SDS011;10999;51.332;9.458;2023-09-19T12:10:22;6.68;;;1.55;;
21675;SDS011;10999;51.332;9.458;2023-09-19T12:12:49;7.35;;;1.70;;
21675;SDS011;10999;51.332;9.458;2023-09-19T12:15:24;6.25;;;1.25;;
21675;SDS011;10999;51.332;9.458;2023-09-19T12:18:00;6.40;;;1.45;;
21675;SDS011;10999;51.332;9.458;2023-09-19T12:20:41;4.65;;;1.40;;
21675;SDS011;10999;51.332;9.458;2023-09-19T12:23:15;6.50;;;1.50;;
21675;SDS011;10999;51.332;9.458;2023-09-19T12:25:43;5.18;;;1.23;;
21675;SDS011;10999;51.332;9.458;2023-09-19T12:28:14;6.40;;;1.30;;
21675;SDS011;10999;51.332;9.458;2023-09-19T12:30:43;5.85;;;1.50;;
21675;SDS011;10999;51.332;9.458;2023-09-19T12:33:16;6.43;;;1.55;;
21675;SDS011;10999;51.332;9.458;2023-09-19T12:35:51;4.95;;;1.35;;
21675;SDS011;10999;51.332;9.458;2023-09-19T12:41:01;8.82;;;2.33;;
21675;SDS011;10999;51.332;9.458;2023-09-19T12:43:29;7.45;;;1.73;;
21675;SDS011;10999;51.332;9.458;2023-09-19T12:45:59;7.22;;;1.60;;
21675;SDS011;10999;51.332;9.458;2023-09-19T12:48:26;7.28;;;1.50;;
21675;SDS011;10999;51.332;9.458;2023-09-19T12:56:09;5.22;;;1.63;;
21675;SDS011;10999;51.332;9.458;2023-09-19T12:58:52;5.72;;;1.10;;
21675;SDS011;10999;51.332;9.458;2023-09-19T13:01:23;4.40;;;1.35;;
21675;SDS011;10999;51.332;9.458;2023-09-19T13:04:16;5.65;;;1.00;;
21675;SDS011;10999;51.332;9.458;2023-09-19T13:06:46;9.45;;;1.70;;
21675;SDS011;10999;51.332;9.458;2023-09-19T13:09:15;4.68;;;1.20;;
21675;SDS011;10999;51.332;9.458;2023-09-19T13:11:43;5.15;;;1.33;;
21675;SDS011;10999;51.332;9.458;2023-09-19T13:14:13;5.78;;;1.33;;
21675;SDS011;10999;51.332;9.458;2023-09-19T13:17:04;4.40;;;1.17;;
21675;SDS011;10999;51.332;9.458;2023-09-19T13:19:42;3.65;;;0.98;;
21675;SDS011;10999;51.332;9.458;2023-09-19T13:25:10;5.97;;;1.20;;
21675;SDS011;10999;51.332;9.458;2023-09-19T13:27:45;6.20;;;1.00;;
21675;SDS011;10999;51.332;9.458;2023-09-19T13:30:18;3.63;;;0.98;;
21675;SDS011;10999;51.332;9.458;2023-09-19T13:32:46;5.57;;;1.52;;
21675;SDS011;10999;51.332;9.458;2023-09-19T13:35:16;10.60;;;1.85;;
21675;SDS011;10999;51.332;9.458;2023-09-19T13:37:44;6.20;;;1.23;;
21675;SDS011;10999;51.332;9.458;2023-09-19T13:40:15;6.13;;;1.20;;
21675;SDS011;10999;51.332;9.458;2023-09-19T13:42:42;3.65;;;1.00;;
21675;SDS011;10999;51.332;9.458;2023-09-19T13:45:09;3.35;;;1.05;;
21675;SDS011;10999;51.332;9.458;2023-09-19T13:47:39;4.97;;;1.05;;
21675;SDS011;10999;51.332;9.458;2023-09-19T13:50:07;4.22;;;1.00;;
21675;SDS011;10999;51.332;9.458;2023-09-19T13:52:34;3.22;;;1.33;;
21675;SDS011;10999;51.332;9.458;2023-09-19T13:55:01;4.22;;;1.17;;
21675;SDS011;10999;51.332;9.458;2023-09-19T13:57:28;4.57;;;1.60;;
21675;SDS011;10999;51.332;9.458;2023-09-19T13:59:55;4.20;;;0.90;;
21675;SDS011;10999;51.332;9.458;2023-09-19T14:02:22;5.70;;;1.10;;
21675;SDS011;10999;51.332;9.458;2023-09-19T14:04:50;4.43;;;0.90;;
21675;SDS011;10999;51.332;9.458;2023-09-19T14:07:18;5.00;;;1.40;;
21675;SDS011;10999;51.332;9.458;2023-09-19T14:09:46;4.97;;;1.60;;
21675;SDS011;10999;51.332;9.458;2023-09-19T14:12:13;4.93;;;1.40;;
21675;SDS011;10999;51.332;9.458;2023-09-19T14:14:40;6.13;;;1.58;;
21675;SDS011;10999;51.332;9.458;2023-09-19T14:17:08;6.57;;;1.27;;
21675;SDS011;10999;51.332;9.458;2023-09-19T14:19:35;7.93;;;1.80;;
21675;SDS011;10999;51.332;9.458;2023-09-19T14:22:04;6.30;;;1.70;;
21675;SDS011;10999;51.332;9.458;2023-09-19T14:24:34;5.85;;;1.10;;
21675;SDS011;10999;51.332;9.458;2023-09-19T14:27:02;5.90;;;1.45;;
21675;SDS011;10999;51.332;9.458;2023-09-19T14:29:30;6.13;;;1.30;;
21675;SDS011;10999;51.332;9.458;2023-09-19T14:31:58;5.00;;;1.30;;
21675;SDS011;10999;51.332;9.458;2023-09-19T14:34:25;5.60;;;1.30;;
21675;SDS011;10999;51.332;9.458;2023-09-19T14:36:52;7.20;;;1.42;;
21675;SDS011;10999;51.332;9.458;2023-09-19T14:39:21;6.05;;;1.50;;
21675;SDS011;10999;51.332;9.458;2023-09-19T14:41:47;9.02;;;1.55;;
21675;SDS011;10999;51.332;9.458;2023-09-19T14:44:14;6.00;;;1.45;;
21675;SDS011;10999;51.332;9.458;2023-09-19T14:46:44;8.32;;;1.98;;
21675;SDS011;10999;51.332;9.458;2023-09-19T14:49:11;6.63;;;1.67;;
21675;SDS011;10999;51.332;9.458;2023-09-19T14:51:38;5.88;;;1.30;;
21675;SDS011;10999;51.332;9.458;2023-09-19T14:54:10;4.38;;;1.52;;
21675;SDS011;10999;51.332;9.458;2023-09-19T14:56:37;6.88;;;1.42;;
21675;SDS011;10999;51.332;9.458;2023-09-19T14:59:04;8.80;;;1.80;;
21675;SDS011;10999;51.332;9.458;2023-09-19T15:01:31;6.25;;;1.58;;
21675;SDS011;10999;51.332;9.458;2023-09-19T15:03:59;8.77;;;1.40;;
21675;SDS011;10999;51.332;9.458;2023-09-19T15:06:28;6.05;;;1.70;;
21675;SDS011;10999;51.332;9.458;2023-09-19T15:08:55;7.07;;;1.80;;
21675;SDS011;10999;51.332;9.458;2023-09-19T15:11:23;6.43;;;1.77;;
21675;SDS011;10999;51.332;9.458;2023-09-19T15:13:50;7.28;;;2.30;;
21675;SDS011;10999;51.332;9.458;2023-09-19T15:16:18;5.47;;;1.50;;
21675;SDS011;10999;51.332;9.458;2023-09-19T15:18:45;6.25;;;1.33;;
21675;SDS011;10999;51.332;9.458;2023-09-19T15:21:15;7.03;;;1.40;;
21675;SDS011;10999;51.332;9.458;2023-09-19T15:23:43;5.82;;;1.30;;
21675;SDS011;10999;51.332;9.458;2023-09-19T15:26:11;5.97;;;1.38;;
21675;SDS011;10999;51.332;9.458;2023-09-19T15:28:40;5.38;;;1.25;;
21675;SDS011;10999;51.332;9.458;2023-09-19T15:31:08;5.97;;;1.50;;
21675;SDS011;10999;51.332;9.458;2023-09-19T15:33:39;4.93;;;1.10;;
21675;SDS011;10999;51.332;9.458;2023-09-19T15:36:10;6.13;;;1.40;;
21675;SDS011;10999;51.332;9.458;2023-09-19T15:38:57;5.47;;;1.23;;
21675;SDS011;10999;51.332;9.458;2023-09-19T15:41:25;5.63;;;1.30;;
21675;SDS011;10999;51.332;9.458;2023-09-19T15:43:54;5.72;;;1.63;;
21675;SDS011;10999;51.332;9.458;2023-09-19T15:46:22;8.32;;;1.50;;
21675;SDS011;10999;51.332;9.458;2023-09-19T15:48:49;5.35;;;1.08;;
21675;SDS011;10999;51.332;9.458;2023-09-19T15:51:16;6.18;;;1.23;;
21675;SDS011;10999;51.332;9.458;2023-09-19T15:53:44;5.28;;;1.30;;
21675;SDS011;10999;51.332;9.458;2023-09-19T15:56:13;4.32;;;1.02;;
21675;SDS011;10999;51.332;9.458;2023-09-19T15:58:40;5.90;;;1.00;;
21675;SDS011;10999;51.332;9.458;2023-09-19T16:01:08;5.13;;;1.30;;
21675;SDS011;10999;51.332;9.458;2023-09-19T16:03:38;5.03;;;1.20;;
21675;SDS011;10999;51.332;9.458;2023-09-19T16:06:10;5.53;;;1.40;;
21675;SDS011;10999;51.332;9.458;2023-09-19T16:08:41;4.88;;;1.10;;